sensor_id;sensor_type;location;lat;lon;timestamp;P1;durP1;ratioP1;P2;durP2;ratioP2
54332;SDS011;40230;41.860;21.940;2022-07-26T00:02:06;7.47;;;6.70;;
54332;SDS011;40230;41.860;21.940;2022-07-26T00:04:32;8.70;;;7.18;;
54332;SDS011;40230;41.860;21.940;2022-07-26T00:06:58;8.10;;;7.35;;
54332;SDS011;40230;41.860;21.940;2022-07-26T00:09:25;8.18;;;7.00;;
54332;SDS011;40230;41.860;21.940;2022-07-26T00:11:51;6.95;;;6.25;;
54332;SDS011;40230;41.860;21.940;2022-07-26T00:14:17;8.15;;;7.45;;
54332;SDS011;40230;41.860;21.940;2022-07-26T00:16:43;7.40;;;6.57;;
54332;SDS011;40230;41.860;21.940;2022-07-26T00:19:09;8.50;;;7.70;;
54332;SDS011;40230;41.860;21.940;2022-07-26T00:21:36;9.63;;;7.70;;
54332;SDS011;40230;41.860;21.940;2022-07-26T00:24:02;8.07;;;7.38;;
54332;SDS011;40230;41.860;21.940;2022-07-26T00:26:28;7.88;;;7.18;;
54332;SDS011;40230;41.860;21.940;2022-07-26T00:28:54;9.95;;;7.40;;
54332;SDS011;40230;41.860;21.940;2022-07-26T00:31:21;7.78;;;6.97;;
54332;SDS011;40230;41.860;21.940;2022-07-26T00:33:47;8.70;;;8.00;;
54332;SDS011;40230;41.860;21.940;2022-07-26T00:36:13;8.50;;;7.18;;
54332;SDS011;40230;41.860;21.940;2022-07-26T00:38:39;8.50;;;7.70;;
54332;SDS011;40230;41.860;21.940;2022-07-26T00:41:06;8.60;;;7.80;;
54332;SDS011;40230;41.860;21.940;2022-07-26T00:43:33;8.32;;;7.53;;
54332;SDS011;40230;41.860;21.940;2022-07-26T00:45:59;8.57;;;7.70;;
54332;SDS011;40230;41.860;21.940;2022-07-26T00:48:26;8.50;;;7.70;;
54332;SDS011;40230;41.860;21.940;2022-07-26T00:50:52;9.18;;;8.30;;
54332;SDS011;40230;41.860;21.940;2022-07-26T00:53:19;8.65;;;7.85;;
54332;SDS011;40230;41.860;21.940;2022-07-26T00:55:46;9.68;;;7.82;;
54332;SDS011;40230;41.860;21.940;2022-07-26T00:58:13;8.82;;;8.10;;
54332;SDS011;40230;41.860;21.940;2022-07-26T01:00:40;9.20;;;8.40;;
54332;SDS011;40230;41.860;21.940;2022-07-26T01:03:06;8.48;;;7.78;;
54332;SDS011;40230;41.860;21.940;2022-07-26T01:05:32;8.63;;;7.85;;
54332;SDS011;40230;41.860;21.940;2022-07-26T01:07:59;9.20;;;8.40;;
54332;SDS011;40230;41.860;21.940;2022-07-26T01:10:25;8.75;;;8.00;;
54332;SDS011;40230;41.860;21.940;2022-07-26T01:12:51;8.23;;;7.60;;
54332;SDS011;40230;41.860;21.940;2022-07-26T01:15:17;8.57;;;7.75;;
54332;SDS011;40230;41.860;21.940;2022-07-26T01:17:44;8.73;;;7.90;;
54332;SDS011;40230;41.860;21.940;2022-07-26T01:20:11;8.48;;;7.68;;
54332;SDS011;40230;41.860;21.940;2022-07-26T01:22:38;8.70;;;7.80;;
54332;SDS011;40230;41.860;21.940;2022-07-26T01:25:04;9.98;;;8.40;;
54332;SDS011;40230;41.860;21.940;2022-07-26T01:27:31;8.70;;;8.00;;
54332;SDS011;40230;41.860;21.940;2022-07-26T01:29:58;8.38;;;7.65;;
54332;SDS011;40230;41.860;21.940;2022-07-26T01:32:24;9.27;;;8.48;;
54332;SDS011;40230;41.860;21.940;2022-07-26T01:34:50;9.60;;;8.65;;
54332;SDS011;40230;41.860;21.940;2022-07-26T01:37:16;8.60;;;7.80;;
54332;SDS011;40230;41.860;21.940;2022-07-26T01:39:42;10.00;;;9.07;;
54332;SDS011;40230;41.860;21.940;2022-07-26T01:42:09;9.95;;;8.95;;
54332;SDS011;40230;41.860;21.940;2022-07-26T01:44:35;8.75;;;7.85;;
54332;SDS011;40230;41.860;21.940;2022-07-26T01:47:02;8.57;;;7.88;;
54332;SDS011;40230;41.860;21.940;2022-07-26T01:49:28;8.45;;;7.65;;
54332;SDS011;40230;41.860;21.940;2022-07-26T01:51:54;8.93;;;8.13;;
54332;SDS011;40230;41.860;21.940;2022-07-26T01:54:20;8.85;;;7.95;;
54332;SDS011;40230;41.860;21.940;2022-07-26T01:56:46;9.77;;;8.98;;
54332;SDS011;40230;41.860;21.940;2022-07-26T01:59:12;9.68;;;8.77;;
54332;SDS011;40230;41.860;21.940;2022-07-26T02:01:38;9.13;;;8.07;;
54332;SDS011;40230;41.860;21.940;2022-07-26T02:04:04;9.25;;;8.45;;
54332;SDS011;40230;41.860;21.940;2022-07-26T02:06:30;9.85;;;8.95;;
54332;SDS011;40230;41.860;21.940;2022-07-26T02:08:56;9.48;;;8.57;;
54332;SDS011;40230;41.860;21.940;2022-07-26T02:11:23;9.18;;;8.38;;
54332;SDS011;40230;41.860;21.940;2022-07-26T02:13:49;9.73;;;8.93;;
54332;SDS011;40230;41.860;21.940;2022-07-26T02:16:15;9.10;;;8.30;;
54332;SDS011;40230;41.860;21.940;2022-07-26T02:18:41;8.70;;;7.90;;
54332;SDS011;40230;41.860;21.940;2022-07-26T02:21:07;9.10;;;8.20;;
54332;SDS011;40230;41.860;21.940;2022-07-26T02:23:34;8.75;;;7.95;;
54332;SDS011;40230;41.860;21.940;2022-07-26T02:26:00;8.95;;;8.15;;
54332;SDS011;40230;41.860;21.940;2022-07-26T02:28:26;9.13;;;8.38;;
54332;SDS011;40230;41.860;21.940;2022-07-26T02:30:53;8.80;;;7.90;;
54332;SDS011;40230;41.860;21.940;2022-07-26T02:33:19;9.38;;;8.50;;
54332;SDS011;40230;41.860;21.940;2022-07-26T02:35:45;9.45;;;8.70;;
54332;SDS011;40230;41.860;21.940;2022-07-26T02:38:13;9.38;;;8.57;;
54332;SDS011;40230;41.860;21.940;2022-07-26T02:40:39;9.73;;;8.82;;
54332;SDS011;40230;41.860;21.940;2022-07-26T02:43:07;8.73;;;7.95;;
54332;SDS011;40230;41.860;21.940;2022-07-26T02:45:33;9.38;;;8.48;;
54332;SDS011;40230;41.860;21.940;2022-07-26T02:47:59;8.23;;;7.60;;
54332;SDS011;40230;41.860;21.940;2022-07-26T02:50:26;8.88;;;8.07;;
54332;SDS011;40230;41.860;21.940;2022-07-26T02:52:53;9.77;;;8.93;;
54332;SDS011;40230;41.860;21.940;2022-07-26T02:55:20;9.00;;;8.18;;
54332;SDS011;40230;41.860;21.940;2022-07-26T02:57:46;9.65;;;8.70;;
54332;SDS011;40230;41.860;21.940;2022-07-26T03:00:13;8.80;;;7.90;;
54332;SDS011;40230;41.860;21.940;2022-07-26T03:02:40;9.38;;;8.68;;
54332;SDS011;40230;41.860;21.940;2022-07-26T03:05:06;9.95;;;8.85;;
54332;SDS011;40230;41.860;21.940;2022-07-26T03:07:32;10.30;;;9.40;;
54332;SDS011;40230;41.860;21.940;2022-07-26T03:09:59;10.07;;;9.18;;
54332;SDS011;40230;41.860;21.940;2022-07-26T03:12:25;10.27;;;9.27;;
54332;SDS011;40230;41.860;21.940;2022-07-26T03:14:51;11.30;;;10.02;;
54332;SDS011;40230;41.860;21.940;2022-07-26T03:17:18;10.13;;;9.15;;
54332;SDS011;40230;41.860;21.940;2022-07-26T03:19:44;9.80;;;9.00;;
54332;SDS011;40230;41.860;21.940;2022-07-26T03:22:10;10.73;;;8.75;;
54332;SDS011;40230;41.860;21.940;2022-07-26T03:24:36;10.73;;;9.63;;
54332;SDS011;40230;41.860;21.940;2022-07-26T03:27:02;10.57;;;9.32;;
54332;SDS011;40230;41.860;21.940;2022-07-26T03:29:29;9.80;;;9.00;;
54332;SDS011;40230;41.860;21.940;2022-07-26T03:31:55;8.98;;;8.15;;
54332;SDS011;40230;41.860;21.940;2022-07-26T03:34:21;11.07;;;9.98;;
54332;SDS011;40230;41.860;21.940;2022-07-26T03:36:47;10.27;;;9.20;;
54332;SDS011;40230;41.860;21.940;2022-07-26T03:39:13;10.02;;;9.07;;
54332;SDS011;40230;41.860;21.940;2022-07-26T03:41:39;11.38;;;9.77;;
54332;SDS011;40230;41.860;21.940;2022-07-26T03:44:05;9.90;;;9.00;;
54332;SDS011;40230;41.860;21.940;2022-07-26T03:46:31;10.35;;;9.02;;
54332;SDS011;40230;41.860;21.940;2022-07-26T03:48:58;9.40;;;8.60;;
54332;SDS011;40230;41.860;21.940;2022-07-26T03:51:24;10.63;;;9.52;;
54332;SDS011;40230;41.860;21.940;2022-07-26T03:53:50;10.55;;;9.57;;
54332;SDS011;40230;41.860;21.940;2022-07-26T03:56:16;10.85;;;9.82;;
54332;SDS011;40230;41.860;21.940;2022-07-26T03:59:04;11.68;;;8.93;;
54332;SDS011;40230;41.860;21.940;2022-07-26T04:01:31;9.90;;;9.00;;
54332;SDS011;40230;41.860;21.940;2022-07-26T04:03:58;10.68;;;9.68;;
54332;SDS011;40230;41.860;21.940;2022-07-26T04:06:25;9.63;;;8.73;;
54332;SDS011;40230;41.860;21.940;2022-07-26T04:08:52;10.38;;;9.38;;
54332;SDS011;40230;41.860;21.940;2022-07-26T04:11:18;10.57;;;9.25;;
54332;SDS011;40230;41.860;21.940;2022-07-26T04:13:44;12.38;;;11.13;;
54332;SDS011;40230;41.860;21.940;2022-07-26T04:16:10;14.40;;;12.98;;
54332;SDS011;40230;41.860;21.940;2022-07-26T04:18:36;15.40;;;13.88;;
54332;SDS011;40230;41.860;21.940;2022-07-26T04:21:02;14.48;;;12.82;;
54332;SDS011;40230;41.860;21.940;2022-07-26T04:23:28;11.60;;;10.32;;
54332;SDS011;40230;41.860;21.940;2022-07-26T04:25:55;10.63;;;9.52;;
54332;SDS011;40230;41.860;21.940;2022-07-26T04:28:21;11.13;;;10.10;;
54332;SDS011;40230;41.860;21.940;2022-07-26T04:30:48;11.73;;;10.52;;
54332;SDS011;40230;41.860;21.940;2022-07-26T04:33:14;11.95;;;10.13;;
54332;SDS011;40230;41.860;21.940;2022-07-26T04:35:40;11.30;;;9.55;;
54332;SDS011;40230;41.860;21.940;2022-07-26T04:38:06;11.70;;;10.60;;
54332;SDS011;40230;41.860;21.940;2022-07-26T04:40:32;11.30;;;10.15;;
54332;SDS011;40230;41.860;21.940;2022-07-26T04:42:59;11.52;;;10.43;;
54332;SDS011;40230;41.860;21.940;2022-07-26T04:45:25;11.95;;;10.63;;
54332;SDS011;40230;41.860;21.940;2022-07-26T04:47:52;11.50;;;10.40;;
54332;SDS011;40230;41.860;21.940;2022-07-26T04:50:19;11.25;;;9.98;;
54332;SDS011;40230;41.860;21.940;2022-07-26T04:52:46;11.52;;;10.32;;
54332;SDS011;40230;41.860;21.940;2022-07-26T04:55:12;10.07;;;9.18;;
54332;SDS011;40230;41.860;21.940;2022-07-26T04:57:38;10.55;;;9.55;;
54332;SDS011;40230;41.860;21.940;2022-07-26T05:00:05;10.70;;;9.75;;
54332;SDS011;40230;41.860;21.940;2022-07-26T05:02:32;13.07;;;9.68;;
54332;SDS011;40230;41.860;21.940;2022-07-26T05:04:58;12.80;;;10.68;;
54332;SDS011;40230;41.860;21.940;2022-07-26T05:07:24;10.57;;;9.57;;
54332;SDS011;40230;41.860;21.940;2022-07-26T05:09:50;11.90;;;10.77;;
54332;SDS011;40230;41.860;21.940;2022-07-26T05:12:16;12.30;;;10.80;;
54332;SDS011;40230;41.860;21.940;2022-07-26T05:14:43;11.68;;;9.63;;
54332;SDS011;40230;41.860;21.940;2022-07-26T05:17:09;10.95;;;9.38;;
54332;SDS011;40230;41.860;21.940;2022-07-26T05:19:36;12.55;;;11.27;;
54332;SDS011;40230;41.860;21.940;2022-07-26T05:22:02;11.55;;;10.35;;
54332;SDS011;40230;41.860;21.940;2022-07-26T05:24:28;11.38;;;10.32;;
54332;SDS011;40230;41.860;21.940;2022-07-26T05:26:54;11.95;;;10.68;;
54332;SDS011;40230;41.860;21.940;2022-07-26T05:29:20;12.20;;;10.80;;
54332;SDS011;40230;41.860;21.940;2022-07-26T05:31:46;11.98;;;10.77;;
54332;SDS011;40230;41.860;21.940;2022-07-26T05:34:12;11.48;;;10.30;;
54332;SDS011;40230;41.860;21.940;2022-07-26T05:36:38;12.20;;;10.90;;
54332;SDS011;40230;41.860;21.940;2022-07-26T05:39:06;13.02;;;10.98;;
54332;SDS011;40230;41.860;21.940;2022-07-26T05:41:32;15.05;;;13.70;;
54332;SDS011;40230;41.860;21.940;2022-07-26T05:43:58;12.98;;;11.80;;
54332;SDS011;40230;41.860;21.940;2022-07-26T05:46:25;11.63;;;10.55;;
54332;SDS011;40230;41.860;21.940;2022-07-26T05:48:51;12.38;;;11.10;;
54332;SDS011;40230;41.860;21.940;2022-07-26T05:51:17;11.85;;;10.68;;
54332;SDS011;40230;41.860;21.940;2022-07-26T05:53:43;11.93;;;10.82;;
54332;SDS011;40230;41.860;21.940;2022-07-26T05:56:09;11.50;;;10.40;;
54332;SDS011;40230;41.860;21.940;2022-07-26T05:58:35;22.25;;;12.88;;
54332;SDS011;40230;41.860;21.940;2022-07-26T06:01:01;17.80;;;13.25;;
54332;SDS011;40230;41.860;21.940;2022-07-26T06:03:27;13.82;;;11.50;;
54332;SDS011;40230;41.860;21.940;2022-07-26T06:05:56;12.45;;;11.18;;
54332;SDS011;40230;41.860;21.940;2022-07-26T06:08:23;29.13;;;26.58;;
54332;SDS011;40230;41.860;21.940;2022-07-26T06:10:49;18.98;;;14.65;;
54332;SDS011;40230;41.860;21.940;2022-07-26T06:13:16;16.55;;;13.45;;
54332;SDS011;40230;41.860;21.940;2022-07-26T06:15:43;14.65;;;11.27;;
54332;SDS011;40230;41.860;21.940;2022-07-26T06:18:09;13.35;;;11.75;;
54332;SDS011;40230;41.860;21.940;2022-07-26T06:20:39;13.50;;;12.02;;
54332;SDS011;40230;41.860;21.940;2022-07-26T06:23:06;12.88;;;11.57;;
54332;SDS011;40230;41.860;21.940;2022-07-26T06:25:32;12.70;;;11.55;;
54332;SDS011;40230;41.860;21.940;2022-07-26T06:28:00;17.67;;;15.98;;
54332;SDS011;40230;41.860;21.940;2022-07-26T06:30:27;17.75;;;15.95;;
54332;SDS011;40230;41.860;21.940;2022-07-26T06:32:53;14.77;;;13.48;;
54332;SDS011;40230;41.860;21.940;2022-07-26T06:35:21;13.88;;;12.50;;
54332;SDS011;40230;41.860;21.940;2022-07-26T06:37:56;29.05;;;26.35;;
54332;SDS011;40230;41.860;21.940;2022-07-26T06:40:23;12.90;;;11.73;;
54332;SDS011;40230;41.860;21.940;2022-07-26T06:42:50;15.15;;;13.85;;
54332;SDS011;40230;41.860;21.940;2022-07-26T06:45:31;16.20;;;14.73;;
54332;SDS011;40230;41.860;21.940;2022-07-26T06:47:57;14.60;;;13.20;;
54332;SDS011;40230;41.860;21.940;2022-07-26T06:50:24;13.40;;;12.07;;
54332;SDS011;40230;41.860;21.940;2022-07-26T06:52:50;18.05;;;16.45;;
54332;SDS011;40230;41.860;21.940;2022-07-26T06:55:16;31.80;;;19.50;;
54332;SDS011;40230;41.860;21.940;2022-07-26T06:57:42;25.98;;;23.48;;
54332;SDS011;40230;41.860;21.940;2022-07-26T07:00:08;20.98;;;18.95;;
54332;SDS011;40230;41.860;21.940;2022-07-26T07:02:35;16.33;;;14.23;;
54332;SDS011;40230;41.860;21.940;2022-07-26T07:05:01;101.38;;;46.97;;
54332;SDS011;40230;41.860;21.940;2022-07-26T07:07:30;79.15;;;37.92;;
54332;SDS011;40230;41.860;21.940;2022-07-26T07:12:46;150.68;;;66.65;;
54332;SDS011;40230;41.860;21.940;2022-07-26T07:15:12;156.30;;;67.28;;
54332;SDS011;40230;41.860;21.940;2022-07-26T07:17:38;171.10;;;72.57;;
54332;SDS011;40230;41.860;21.940;2022-07-26T07:20:04;228.93;;;94.35;;
54332;SDS011;40230;41.860;21.940;2022-07-26T07:22:31;193.32;;;82.78;;
54332;SDS011;40230;41.860;21.940;2022-07-26T07:24:57;154.93;;;69.18;;
54332;SDS011;40230;41.860;21.940;2022-07-26T07:27:24;117.25;;;53.80;;
54332;SDS011;40230;41.860;21.940;2022-07-26T07:29:50;35.15;;;21.65;;
54332;SDS011;40230;41.860;21.940;2022-07-26T07:32:17;38.10;;;21.67;;
54332;SDS011;40230;41.860;21.940;2022-07-26T07:34:44;42.60;;;24.13;;
54332;SDS011;40230;41.860;21.940;2022-07-26T07:37:10;36.75;;;23.17;;
54332;SDS011;40230;41.860;21.940;2022-07-26T07:39:36;17.92;;;16.05;;
54332;SDS011;40230;41.860;21.940;2022-07-26T07:42:03;64.18;;;32.97;;
54332;SDS011;40230;41.860;21.940;2022-07-26T07:44:29;44.85;;;25.85;;
54332;SDS011;40230;41.860;21.940;2022-07-26T07:46:55;24.85;;;16.15;;
54332;SDS011;40230;41.860;21.940;2022-07-26T07:49:24;141.85;;;62.92;;
54332;SDS011;40230;41.860;21.940;2022-07-26T07:51:51;154.65;;;67.93;;
54332;SDS011;40230;41.860;21.940;2022-07-26T07:54:20;50.78;;;27.45;;
54332;SDS011;40230;41.860;21.940;2022-07-26T07:56:46;111.95;;;50.58;;
54332;SDS011;40230;41.860;21.940;2022-07-26T07:59:12;38.03;;;31.50;;
54332;SDS011;40230;41.860;21.940;2022-07-26T08:01:38;81.10;;;47.45;;
54332;SDS011;40230;41.860;21.940;2022-07-26T08:04:04;29.30;;;19.15;;
54332;SDS011;40230;41.860;21.940;2022-07-26T08:06:30;54.53;;;30.27;;
54332;SDS011;40230;41.860;21.940;2022-07-26T08:08:56;20.73;;;16.98;;
54332;SDS011;40230;41.860;21.940;2022-07-26T08:11:23;23.23;;;19.75;;
54332;SDS011;40230;41.860;21.940;2022-07-26T08:13:49;14.27;;;12.85;;
54332;SDS011;40230;41.860;21.940;2022-07-26T08:16:15;11.23;;;10.20;;
54332;SDS011;40230;41.860;21.940;2022-07-26T08:18:41;19.45;;;15.82;;
54332;SDS011;40230;41.860;21.940;2022-07-26T08:21:07;15.35;;;13.85;;
54332;SDS011;40230;41.860;21.940;2022-07-26T08:23:33;15.07;;;13.57;;
54332;SDS011;40230;41.860;21.940;2022-07-26T08:25:59;14.43;;;12.05;;
54332;SDS011;40230;41.860;21.940;2022-07-26T08:28:26;17.55;;;13.63;;
54332;SDS011;40230;41.860;21.940;2022-07-26T08:30:52;84.78;;;42.75;;
54332;SDS011;40230;41.860;21.940;2022-07-26T08:33:18;60.28;;;33.20;;
54332;SDS011;40230;41.860;21.940;2022-07-26T08:35:44;43.38;;;25.77;;
54332;SDS011;40230;41.860;21.940;2022-07-26T08:38:10;15.55;;;12.95;;
54332;SDS011;40230;41.860;21.940;2022-07-26T08:40:37;28.48;;;18.90;;
54332;SDS011;40230;41.860;21.940;2022-07-26T08:43:03;21.35;;;17.52;;
54332;SDS011;40230;41.860;21.940;2022-07-26T08:45:29;33.38;;;22.48;;
54332;SDS011;40230;41.860;21.940;2022-07-26T08:47:56;21.63;;;19.33;;
54332;SDS011;40230;41.860;21.940;2022-07-26T08:50:23;13.57;;;12.38;;
54332;SDS011;40230;41.860;21.940;2022-07-26T08:52:50;12.80;;;11.60;;
54332;SDS011;40230;41.860;21.940;2022-07-26T08:55:17;12.85;;;11.65;;
54332;SDS011;40230;41.860;21.940;2022-07-26T08:57:43;13.90;;;12.65;;
54332;SDS011;40230;41.860;21.940;2022-07-26T09:00:20;32.22;;;29.40;;
54332;SDS011;40230;41.860;21.940;2022-07-26T09:02:46;21.08;;;19.15;;
54332;SDS011;40230;41.860;21.940;2022-07-26T09:05:13;14.43;;;13.00;;
54332;SDS011;40230;41.860;21.940;2022-07-26T09:10:43;13.10;;;11.95;;
54332;SDS011;40230;41.860;21.940;2022-07-26T09:13:09;52.45;;;48.53;;
54332;SDS011;40230;41.860;21.940;2022-07-26T09:15:35;15.52;;;12.20;;
54332;SDS011;40230;41.860;21.940;2022-07-26T09:18:01;11.88;;;10.88;;
54332;SDS011;40230;41.860;21.940;2022-07-26T09:20:28;12.60;;;11.45;;
54332;SDS011;40230;41.860;21.940;2022-07-26T09:25:21;14.95;;;13.63;;
54332;SDS011;40230;41.860;21.940;2022-07-26T09:27:47;16.02;;;14.45;;
54332;SDS011;40230;41.860;21.940;2022-07-26T09:30:15;14.15;;;12.95;;
54332;SDS011;40230;41.860;21.940;2022-07-26T09:32:54;17.27;;;15.70;;
54332;SDS011;40230;41.860;21.940;2022-07-26T09:35:20;13.85;;;12.48;;
54332;SDS011;40230;41.860;21.940;2022-07-26T09:37:47;13.18;;;12.00;;
54332;SDS011;40230;41.860;21.940;2022-07-26T09:40:14;12.20;;;11.07;;
54332;SDS011;40230;41.860;21.940;2022-07-26T09:42:56;12.95;;;11.85;;
54332;SDS011;40230;41.860;21.940;2022-07-26T09:45:23;12.93;;;11.82;;
54332;SDS011;40230;41.860;21.940;2022-07-26T09:47:50;12.52;;;11.55;;
54332;SDS011;40230;41.860;21.940;2022-07-26T09:50:17;12.48;;;11.48;;
54332;SDS011;40230;41.860;21.940;2022-07-26T09:58:11;12.90;;;11.90;;
54332;SDS011;40230;41.860;21.940;2022-07-26T10:00:38;14.52;;;13.27;;
54332;SDS011;40230;41.860;21.940;2022-07-26T10:03:04;15.23;;;13.93;;
54332;SDS011;40230;41.860;21.940;2022-07-26T10:05:31;16.45;;;14.88;;
54332;SDS011;40230;41.860;21.940;2022-07-26T10:07:57;13.88;;;12.68;;
54332;SDS011;40230;41.860;21.940;2022-07-26T10:10:28;14.18;;;12.98;;
54332;SDS011;40230;41.860;21.940;2022-07-26T10:12:55;14.15;;;12.75;;
54332;SDS011;40230;41.860;21.940;2022-07-26T10:15:38;14.45;;;13.23;;
54332;SDS011;40230;41.860;21.940;2022-07-26T10:18:05;12.57;;;11.57;;
54332;SDS011;40230;41.860;21.940;2022-07-26T10:23:33;13.02;;;11.73;;
54332;SDS011;40230;41.860;21.940;2022-07-26T10:25:59;41.70;;;25.98;;
54332;SDS011;40230;41.860;21.940;2022-07-26T10:28:27;30.55;;;21.67;;
54332;SDS011;40230;41.860;21.940;2022-07-26T10:33:41;66.47;;;59.65;;
54332;SDS011;40230;41.860;21.940;2022-07-26T10:36:25;28.95;;;24.08;;
54332;SDS011;40230;41.860;21.940;2022-07-26T10:41:46;14.75;;;13.35;;
54332;SDS011;40230;41.860;21.940;2022-07-26T10:44:23;31.42;;;21.08;;
54332;SDS011;40230;41.860;21.940;2022-07-26T10:57:27;13.57;;;12.27;;
54332;SDS011;40230;41.860;21.940;2022-07-26T10:59:54;20.50;;;17.05;;
54332;SDS011;40230;41.860;21.940;2022-07-26T11:02:22;37.33;;;24.15;;
54332;SDS011;40230;41.860;21.940;2022-07-26T11:04:57;30.55;;;23.75;;
54332;SDS011;40230;41.860;21.940;2022-07-26T11:07:25;33.08;;;21.33;;
54332;SDS011;40230;41.860;21.940;2022-07-26T11:09:57;18.20;;;16.23;;
54332;SDS011;40230;41.860;21.940;2022-07-26T11:12:23;17.65;;;14.77;;
54332;SDS011;40230;41.860;21.940;2022-07-26T11:14:49;20.05;;;17.95;;
54332;SDS011;40230;41.860;21.940;2022-07-26T11:17:27;35.00;;;31.73;;
54332;SDS011;40230;41.860;21.940;2022-07-26T11:19:53;17.95;;;16.15;;
54332;SDS011;40230;41.860;21.940;2022-07-26T11:22:20;105.25;;;22.05;;
54332;SDS011;40230;41.860;21.940;2022-07-26T11:24:46;12.23;;;11.13;;
54332;SDS011;40230;41.860;21.940;2022-07-26T11:27:12;24.42;;;20.00;;
54332;SDS011;40230;41.860;21.940;2022-07-26T11:29:39;13.52;;;12.40;;
54332;SDS011;40230;41.860;21.940;2022-07-26T11:32:06;29.73;;;26.77;;
54332;SDS011;40230;41.860;21.940;2022-07-26T11:34:33;11.43;;;10.43;;
54332;SDS011;40230;41.860;21.940;2022-07-26T11:37:03;14.35;;;13.07;;
54332;SDS011;40230;41.860;21.940;2022-07-26T11:39:31;10.88;;;9.80;;
54332;SDS011;40230;41.860;21.940;2022-07-26T11:42:02;10.50;;;9.60;;
54332;SDS011;40230;41.860;21.940;2022-07-26T11:44:28;10.00;;;8.55;;
54332;SDS011;40230;41.860;21.940;2022-07-26T11:46:54;10.57;;;9.55;;
54332;SDS011;40230;41.860;21.940;2022-07-26T11:49:25;9.30;;;8.57;;
54332;SDS011;40230;41.860;21.940;2022-07-26T11:51:53;9.60;;;8.80;;
54332;SDS011;40230;41.860;21.940;2022-07-26T11:54:21;8.75;;;7.95;;
54332;SDS011;40230;41.860;21.940;2022-07-26T11:59:16;13.40;;;9.15;;
54332;SDS011;40230;41.860;21.940;2022-07-26T12:01:44;9.52;;;8.68;;
54332;SDS011;40230;41.860;21.940;2022-07-26T12:06:55;9.85;;;8.85;;
54332;SDS011;40230;41.860;21.940;2022-07-26T12:11:56;11.32;;;10.13;;
54332;SDS011;40230;41.860;21.940;2022-07-26T12:14:23;74.70;;;41.60;;
54332;SDS011;40230;41.860;21.940;2022-07-26T12:16:50;21.50;;;17.13;;
54332;SDS011;40230;41.860;21.940;2022-07-26T12:24:12;11.27;;;9.48;;
54332;SDS011;40230;41.860;21.940;2022-07-26T12:26:39;15.05;;;13.48;;
54332;SDS011;40230;41.860;21.940;2022-07-26T12:29:05;9.05;;;8.20;;
54332;SDS011;40230;41.860;21.940;2022-07-26T12:34:56;15.45;;;11.27;;
54332;SDS011;40230;41.860;21.940;2022-07-26T12:37:22;8.88;;;8.05;;
54332;SDS011;40230;41.860;21.940;2022-07-26T12:39:59;7.78;;;7.05;;
54332;SDS011;40230;41.860;21.940;2022-07-26T12:42:27;7.03;;;6.40;;
54332;SDS011;40230;41.860;21.940;2022-07-26T12:44:53;7.05;;;6.35;;
54332;SDS011;40230;41.860;21.940;2022-07-26T12:47:19;35.78;;;18.90;;
54332;SDS011;40230;41.860;21.940;2022-07-26T12:49:46;86.85;;;41.63;;
54332;SDS011;40230;41.860;21.940;2022-07-26T12:52:13;24.15;;;15.35;;
54332;SDS011;40230;41.860;21.940;2022-07-26T12:54:39;12.07;;;9.32;;
54332;SDS011;40230;41.860;21.940;2022-07-26T12:57:05;16.73;;;10.60;;
54332;SDS011;40230;41.860;21.940;2022-07-26T12:59:32;17.75;;;11.57;;
54332;SDS011;40230;41.860;21.940;2022-07-26T13:01:58;12.60;;;10.07;;
54332;SDS011;40230;41.860;21.940;2022-07-26T13:04:24;12.80;;;8.48;;
54332;SDS011;40230;41.860;21.940;2022-07-26T13:06:50;8.43;;;7.63;;
54332;SDS011;40230;41.860;21.940;2022-07-26T13:09:16;7.72;;;6.78;;
54332;SDS011;40230;41.860;21.940;2022-07-26T13:11:42;8.68;;;7.07;;
54332;SDS011;40230;41.860;21.940;2022-07-26T13:14:08;5.45;;;5.05;;
54332;SDS011;40230;41.860;21.940;2022-07-26T13:16:34;5.93;;;5.43;;
54332;SDS011;40230;41.860;21.940;2022-07-26T13:19:00;5.70;;;5.20;;
54332;SDS011;40230;41.860;21.940;2022-07-26T13:21:28;6.20;;;5.70;;
54332;SDS011;40230;41.860;21.940;2022-07-26T13:23:55;8.68;;;8.05;;
54332;SDS011;40230;41.860;21.940;2022-07-26T13:26:22;5.90;;;5.28;;
54332;SDS011;40230;41.860;21.940;2022-07-26T13:28:48;11.77;;;6.50;;
54332;SDS011;40230;41.860;21.940;2022-07-26T13:31:14;6.82;;;6.22;;
54332;SDS011;40230;41.860;21.940;2022-07-26T13:33:40;6.32;;;5.70;;
54332;SDS011;40230;41.860;21.940;2022-07-26T13:36:07;6.32;;;5.80;;
54332;SDS011;40230;41.860;21.940;2022-07-26T13:38:33;5.93;;;5.50;;
54332;SDS011;40230;41.860;21.940;2022-07-26T13:40:59;6.15;;;5.65;;
54332;SDS011;40230;41.860;21.940;2022-07-26T13:43:29;6.05;;;5.53;;
54332;SDS011;40230;41.860;21.940;2022-07-26T13:45:55;6.00;;;5.50;;
54332;SDS011;40230;41.860;21.940;2022-07-26T13:48:22;5.65;;;5.15;;
54332;SDS011;40230;41.860;21.940;2022-07-26T13:50:48;5.78;;;5.28;;
54332;SDS011;40230;41.860;21.940;2022-07-26T13:53:14;5.53;;;5.03;;
54332;SDS011;40230;41.860;21.940;2022-07-26T13:55:41;5.90;;;5.40;;
54332;SDS011;40230;41.860;21.940;2022-07-26T13:58:07;5.45;;;5.05;;
54332;SDS011;40230;41.860;21.940;2022-07-26T14:00:33;6.00;;;5.50;;
54332;SDS011;40230;41.860;21.940;2022-07-26T14:02:59;7.75;;;5.32;;
54332;SDS011;40230;41.860;21.940;2022-07-26T14:05:25;6.07;;;5.53;;
54332;SDS011;40230;41.860;21.940;2022-07-26T14:07:52;5.65;;;5.10;;
54332;SDS011;40230;41.860;21.940;2022-07-26T14:10:19;5.80;;;5.32;;
54332;SDS011;40230;41.860;21.940;2022-07-26T14:12:45;5.50;;;5.10;;
54332;SDS011;40230;41.860;21.940;2022-07-26T14:15:11;5.72;;;5.30;;
54332;SDS011;40230;41.860;21.940;2022-07-26T14:17:38;5.45;;;4.95;;
54332;SDS011;40230;41.860;21.940;2022-07-26T14:20:04;5.65;;;5.22;;
54332;SDS011;40230;41.860;21.940;2022-07-26T14:22:31;5.35;;;4.88;;
54332;SDS011;40230;41.860;21.940;2022-07-26T14:24:57;5.13;;;4.72;;
54332;SDS011;40230;41.860;21.940;2022-07-26T14:27:23;5.50;;;5.00;;
54332;SDS011;40230;41.860;21.940;2022-07-26T14:29:49;5.07;;;4.68;;
54332;SDS011;40230;41.860;21.940;2022-07-26T14:32:15;4.70;;;4.30;;
54332;SDS011;40230;41.860;21.940;2022-07-26T14:34:41;5.22;;;4.72;;
54332;SDS011;40230;41.860;21.940;2022-07-26T14:37:07;4.50;;;4.10;;
54332;SDS011;40230;41.860;21.940;2022-07-26T14:39:33;5.40;;;4.97;;
54332;SDS011;40230;41.860;21.940;2022-07-26T14:42:00;6.47;;;4.82;;
54332;SDS011;40230;41.860;21.940;2022-07-26T14:44:26;4.65;;;4.30;;
54332;SDS011;40230;41.860;21.940;2022-07-26T14:46:53;5.53;;;5.13;;
54332;SDS011;40230;41.860;21.940;2022-07-26T14:49:19;5.05;;;4.65;;
54332;SDS011;40230;41.860;21.940;2022-07-26T14:51:45;4.80;;;4.40;;
54332;SDS011;40230;41.860;21.940;2022-07-26T14:54:14;4.40;;;4.05;;
54332;SDS011;40230;41.860;21.940;2022-07-26T14:56:41;5.00;;;4.60;;
54332;SDS011;40230;41.860;21.940;2022-07-26T14:59:07;4.93;;;4.53;;
54332;SDS011;40230;41.860;21.940;2022-07-26T15:01:33;5.22;;;4.78;;
54332;SDS011;40230;41.860;21.940;2022-07-26T15:03:59;5.03;;;4.53;;
54332;SDS011;40230;41.860;21.940;2022-07-26T15:06:25;4.53;;;4.13;;
54332;SDS011;40230;41.860;21.940;2022-07-26T15:08:51;5.00;;;4.57;;